createdAt,value
2018-09-26T00:00:06.408Z,2.50
2018-09-26T00:03:40.216Z,2.40
2018-09-26T00:06:11.000Z,2.40
2018-09-26T00:08:41.796Z,2.40
2018-09-26T00:11:12.691Z,2.47
2018-09-26T00:13:43.527Z,2.10
2018-09-26T00:16:14.414Z,2.70
2018-09-26T00:18:45.224Z,2.30
2018-09-26T00:21:16.075Z,2.40
2018-09-26T00:23:46.809Z,2.50
2018-09-26T00:26:17.652Z,2.47
2018-09-26T00:28:48.407Z,2.40
2018-09-26T00:31:19.280Z,2.47
2018-09-26T00:33:50.111Z,2.30
2018-09-26T00:36:21.062Z,2.10
2018-09-26T00:38:51.836Z,2.97
2018-09-26T00:41:22.652Z,2.30
2018-09-26T00:43:53.450Z,3.50
2018-09-26T00:46:24.240Z,2.40
2018-09-26T00:48:55.024Z,2.07
2018-09-26T00:51:25.866Z,2.00
2018-09-26T00:53:56.660Z,2.37
2018-09-26T00:56:27.531Z,2.20
2018-09-26T00:58:58.608Z,2.57
2018-09-26T01:01:29.477Z,2.30
2018-09-26T01:04:00.249Z,2.30
2018-09-26T01:06:31.116Z,2.57
2018-09-26T01:09:01.912Z,2.50
2018-09-26T01:11:32.915Z,2.83
2018-09-26T01:14:03.752Z,2.50
2018-09-26T01:16:34.668Z,2.33
2018-09-26T01:19:05.592Z,2.30
2018-09-26T01:21:36.487Z,2.00
2018-09-26T01:24:07.596Z,2.37
2018-09-26T01:26:38.440Z,2.10
2018-09-26T01:29:09.243Z,2.17
2018-09-26T01:31:40.143Z,2.00
2018-09-26T01:34:10.991Z,2.20
2018-09-26T01:36:41.726Z,2.37
2018-09-26T01:39:12.560Z,2.27
2018-09-26T01:41:43.333Z,2.80
2018-09-26T01:44:14.135Z,2.53
2018-09-26T01:46:44.925Z,2.50
2018-09-26T01:49:15.948Z,2.20
2018-09-26T01:51:46.720Z,2.70
2018-09-26T01:54:17.544Z,3.13
2018-09-26T01:56:48.340Z,2.40
2018-09-26T01:59:20.198Z,2.70
2018-09-26T02:01:51.741Z,2.60
2018-09-26T02:04:22.803Z,3.00
2018-09-26T02:06:53.775Z,2.40
2018-09-26T02:09:24.801Z,2.80
2018-09-26T02:11:55.833Z,2.87
2018-09-26T02:14:26.912Z,2.40
2018-09-26T02:16:58.098Z,2.53
2018-09-26T02:19:28.956Z,2.90
2018-09-26T02:21:59.743Z,2.50
2018-09-26T02:24:30.679Z,2.53
2018-09-26T02:27:01.441Z,2.63
2018-09-26T02:29:32.272Z,2.87
2018-09-26T02:32:03.019Z,2.50
2018-09-26T02:34:34.192Z,2.90
2018-09-26T02:37:07.585Z,3.03
2018-09-26T02:39:40.440Z,2.70
2018-09-26T02:42:11.500Z,3.10
2018-09-26T02:44:42.664Z,2.50
2018-09-26T02:47:13.603Z,2.57
2018-09-26T02:49:44.868Z,2.83
2018-09-26T02:52:15.624Z,3.03
2018-09-26T02:54:46.405Z,2.50
2018-09-26T02:57:17.198Z,3.27
2018-09-26T02:59:47.964Z,2.30
2018-09-26T03:02:18.771Z,2.80
2018-09-26T03:04:49.601Z,2.50
2018-09-26T03:07:20.352Z,2.40
2018-09-26T03:09:51.196Z,2.47
2018-09-26T03:12:21.983Z,2.27
2018-09-26T03:14:52.780Z,2.50
2018-09-26T03:17:23.673Z,2.50
2018-09-26T03:19:54.491Z,2.50
2018-09-26T03:22:25.326Z,2.47
2018-09-26T03:24:56.128Z,2.60
2018-09-26T03:27:26.908Z,2.20
2018-09-26T03:29:57.738Z,2.90
2018-09-26T03:32:28.723Z,2.77
2018-09-26T03:34:59.558Z,2.63
2018-09-26T03:37:30.352Z,2.60
2018-09-26T03:40:01.239Z,2.80
2018-09-26T03:42:32.037Z,2.87
2018-09-26T03:45:02.900Z,2.40
2018-09-26T03:47:33.664Z,2.63
2018-09-26T03:50:04.563Z,2.47
2018-09-26T03:52:36.084Z,2.40
2018-09-26T03:55:07.496Z,2.30
2018-09-26T03:57:38.276Z,2.40
2018-09-26T04:00:09.178Z,2.80
2018-09-26T04:02:39.992Z,2.60
2018-09-26T04:05:10.879Z,2.63
2018-09-26T04:07:41.827Z,2.40
2018-09-26T04:10:12.644Z,2.30
2018-09-26T04:12:43.955Z,2.30
2018-09-26T04:15:14.756Z,2.97
2018-09-26T04:17:45.696Z,2.33
2018-09-26T04:20:16.949Z,2.90
2018-09-26T04:22:47.697Z,2.73
2018-09-26T04:25:18.564Z,2.43
2018-09-26T04:27:49.461Z,2.47
2018-09-26T04:30:20.390Z,2.80
2018-09-26T04:32:51.211Z,2.20
2018-09-26T04:35:21.988Z,2.40
2018-09-26T04:37:52.793Z,2.60
2018-09-26T04:40:23.599Z,2.30
2018-09-26T04:42:54.370Z,2.60
2018-09-26T04:45:25.228Z,2.53
2018-09-26T04:47:56.047Z,2.60
2018-09-26T04:50:26.876Z,2.93
2018-09-26T04:52:57.725Z,2.67
2018-09-26T04:55:28.576Z,2.60
2018-09-26T04:57:59.424Z,2.43
2018-09-26T05:00:30.483Z,2.87
2018-09-26T05:03:01.249Z,2.83
2018-09-26T05:05:32.067Z,2.73
2018-09-26T05:08:02.944Z,3.00
2018-09-26T05:10:33.915Z,2.83
2018-09-26T05:13:04.696Z,2.70
2018-09-26T05:15:35.871Z,2.87
2018-09-26T05:18:06.896Z,2.90
2018-09-26T05:20:37.774Z,2.60
2018-09-26T05:23:09.249Z,2.77
2018-09-26T05:25:40.077Z,2.60
2018-09-26T05:28:10.896Z,3.00
2018-09-26T05:30:41.694Z,3.03
2018-09-26T05:33:12.436Z,3.00
2018-09-26T05:35:43.239Z,2.70
2018-09-26T05:38:14.173Z,2.63
2018-09-26T05:40:45.660Z,2.70
2018-09-26T05:43:16.453Z,2.73
2018-09-26T05:45:48.569Z,2.80
2018-09-26T05:48:26.304Z,2.83
2018-09-26T05:50:58.751Z,2.80
2018-09-26T05:53:29.717Z,2.70
2018-09-26T05:56:00.556Z,2.80
2018-09-26T05:58:31.320Z,3.70
2018-09-26T06:01:02.249Z,3.07
2018-09-26T06:03:33.188Z,3.10
2018-09-26T06:06:04.056Z,2.77
2018-09-26T06:08:34.869Z,3.03
2018-09-26T06:11:05.781Z,3.03
2018-09-26T06:13:36.680Z,3.20
2018-09-26T06:16:07.675Z,3.03
2018-09-26T06:18:38.754Z,3.13
2018-09-26T06:21:09.912Z,3.10
2018-09-26T06:23:40.866Z,3.40
2018-09-26T06:26:11.816Z,4.10
2018-09-26T06:28:42.665Z,5.03
2018-09-26T06:31:13.596Z,5.50
2018-09-26T06:33:44.468Z,5.33
2018-09-26T06:36:15.346Z,5.90
2018-09-26T06:38:46.195Z,4.23
2018-09-26T06:41:17.089Z,4.37
2018-09-26T06:43:48.395Z,4.50
2018-09-26T06:46:19.216Z,4.23
2018-09-26T06:48:50.025Z,4.70
2018-09-26T06:51:20.900Z,3.67
2018-09-26T06:53:51.689Z,4.00
2018-09-26T06:56:22.548Z,3.40
2018-09-26T06:58:53.354Z,4.33
2018-09-26T07:01:24.361Z,4.33
2018-09-26T07:03:55.124Z,4.00
2018-09-26T07:06:26.013Z,4.33
2018-09-26T07:08:56.769Z,3.13
2018-09-26T07:11:27.652Z,3.60
2018-09-26T07:13:58.630Z,3.57
2018-09-26T07:16:29.568Z,4.20
2018-09-26T07:19:00.529Z,4.17
2018-09-26T07:21:31.430Z,3.57
2018-09-26T07:24:02.321Z,3.10
2018-09-26T07:26:33.160Z,3.43
2018-09-26T07:29:04.053Z,3.60
2018-09-26T07:31:34.981Z,3.33
2018-09-26T07:34:05.758Z,3.20
2018-09-26T07:36:36.589Z,3.10
2018-09-26T07:39:11.286Z,2.70
2018-09-26T07:41:42.128Z,3.03
2018-09-26T07:44:12.909Z,2.70
2018-09-26T07:46:43.795Z,2.70
2018-09-26T07:49:15.049Z,2.60
2018-09-26T07:51:45.933Z,2.70
2018-09-26T07:54:16.853Z,3.00
2018-09-26T07:56:48.221Z,2.90
2018-09-26T07:59:19.229Z,2.63
2018-09-26T08:01:50.038Z,2.50
2018-09-26T08:04:20.888Z,2.73
2018-09-26T08:06:52.433Z,2.60
2018-09-26T08:09:23.235Z,2.80
2018-09-26T08:11:54.112Z,2.97
2018-09-26T08:14:25.009Z,2.60
2018-09-26T08:16:55.824Z,2.80
2018-09-26T08:19:26.610Z,2.77
2018-09-26T08:21:57.451Z,3.17
2018-09-26T08:24:28.245Z,1.80
2018-09-26T08:26:59.080Z,1.80
2018-09-26T08:29:29.869Z,2.27
2018-09-26T08:32:00.748Z,1.83
2018-09-26T08:34:31.541Z,2.03
2018-09-26T08:37:02.385Z,2.40
2018-09-26T08:39:33.168Z,1.57
2018-09-26T08:42:04.000Z,1.67
2018-09-26T08:44:34.950Z,1.60
2018-09-26T08:47:05.833Z,2.00
2018-09-26T08:49:36.642Z,2.20
2018-09-26T08:52:07.652Z,1.70
2018-09-26T08:54:38.434Z,2.00
2018-09-26T08:57:09.356Z,1.50
2018-09-26T08:59:40.169Z,1.53
2018-09-26T09:02:10.996Z,1.53
2018-09-26T09:04:42.227Z,1.60
2018-09-26T09:07:13.091Z,1.90
2018-09-26T09:09:43.916Z,1.50
2018-09-26T09:12:14.745Z,1.43
2018-09-26T09:14:45.873Z,1.47
2018-09-26T09:17:16.646Z,1.30
2018-09-26T09:19:47.440Z,1.63
2018-09-26T09:22:18.421Z,1.73
2018-09-26T09:24:49.221Z,1.60
2018-09-26T09:27:20.119Z,1.60
2018-09-26T09:29:50.900Z,1.00
2018-09-26T09:32:21.776Z,1.40
2018-09-26T09:34:52.634Z,1.20
2018-09-26T09:37:23.469Z,1.30
2018-09-26T09:39:54.277Z,1.37
2018-09-26T09:42:25.072Z,1.30
2018-09-26T09:44:55.961Z,1.40
2018-09-26T09:47:26.993Z,1.30
2018-09-26T09:49:58.031Z,1.30
2018-09-26T09:52:28.987Z,1.30
2018-09-26T09:54:59.772Z,1.20
2018-09-26T09:57:31.005Z,1.20
2018-09-26T10:00:02.117Z,1.10
2018-09-26T10:02:33.078Z,1.13
2018-09-26T10:05:03.880Z,1.20
2018-09-26T10:07:34.702Z,1.27
2018-09-26T10:10:05.576Z,1.17
2018-09-26T10:12:38.309Z,1.00
2018-09-26T10:15:09.163Z,1.60
2018-09-26T10:17:40.120Z,1.30
2018-09-26T10:20:10.950Z,1.43
2018-09-26T10:22:41.775Z,1.17
2018-09-26T10:25:12.643Z,1.23
2018-09-26T10:27:43.556Z,1.33
2018-09-26T10:30:14.340Z,1.30
2018-09-26T10:32:45.173Z,1.33
2018-09-26T10:35:18.041Z,1.40
2018-09-26T10:37:48.977Z,1.43
2018-09-26T10:40:19.800Z,1.30
2018-09-26T10:42:50.648Z,1.20
2018-09-26T10:45:21.782Z,1.50
2018-09-26T10:47:54.657Z,1.20
2018-09-26T10:50:25.601Z,1.30
2018-09-26T10:52:56.450Z,1.27
2018-09-26T10:55:27.278Z,1.40
2018-09-26T10:57:58.467Z,1.27
2018-09-26T11:00:30.143Z,1.20
2018-09-26T11:03:00.965Z,1.20
2018-09-26T11:05:31.743Z,1.20
2018-09-26T11:08:02.556Z,1.20
2018-09-26T11:10:33.396Z,1.20
2018-09-26T11:13:04.249Z,1.00
2018-09-26T11:15:35.073Z,1.20
2018-09-26T11:18:06.377Z,1.30
2018-09-26T11:20:37.267Z,1.60
2018-09-26T11:23:08.151Z,1.10
2018-09-26T11:25:39.243Z,1.13
2018-09-26T11:28:10.152Z,1.20
2018-09-26T11:30:41.001Z,1.17
2018-09-26T11:33:11.978Z,1.40
2018-09-26T11:35:42.872Z,2.33
2018-09-26T11:38:13.756Z,17.60
2018-09-26T11:40:44.517Z,8.20
2018-09-26T11:43:15.420Z,2.67
2018-09-26T11:45:46.284Z,3.27
2018-09-26T11:48:17.207Z,1.40
2018-09-26T11:50:48.140Z,1.23
2018-09-26T11:53:18.985Z,1.60
2018-09-26T11:55:49.834Z,1.20
2018-09-26T11:58:20.617Z,1.10
2018-09-26T12:00:51.465Z,1.00
2018-09-26T12:03:23.785Z,1.30
2018-09-26T12:05:54.571Z,1.23
2018-09-26T12:08:25.799Z,1.23
2018-09-26T12:10:56.549Z,1.17
2018-09-26T12:13:27.373Z,1.13
2018-09-26T12:15:58.172Z,1.00
2018-09-26T12:18:29.014Z,1.00
2018-09-26T12:20:59.952Z,1.30
2018-09-26T12:23:30.837Z,1.13
2018-09-26T12:26:01.679Z,1.00
2018-09-26T12:28:32.636Z,1.10
2018-09-26T12:31:03.731Z,0.90
2018-09-26T12:33:34.613Z,1.07
2018-09-26T12:36:06.349Z,1.10
2018-09-26T12:38:37.197Z,1.30
2018-09-26T12:41:08.036Z,1.60
2018-09-26T12:43:38.876Z,1.40
2018-09-26T12:46:09.739Z,1.17
2018-09-26T12:48:40.675Z,1.10
2018-09-26T12:51:14.501Z,1.53
2018-09-26T12:53:47.433Z,1.33
2018-09-26T12:56:18.257Z,1.30
2018-09-26T12:58:49.240Z,1.00
2018-09-26T13:01:21.148Z,1.00
2018-09-26T13:03:52.245Z,0.97
2018-09-26T13:06:23.118Z,1.20
2018-09-26T13:08:54.332Z,0.90
2018-09-26T13:11:25.109Z,1.17
2018-09-26T13:13:57.086Z,1.30
2018-09-26T13:16:28.850Z,1.40
2018-09-26T13:19:00.703Z,1.17
2018-09-26T13:21:32.021Z,1.00
2018-09-26T13:24:03.470Z,1.10
2018-09-26T13:26:34.320Z,1.13
2018-09-26T13:29:05.137Z,0.97
2018-09-26T13:31:35.921Z,1.27
2018-09-26T13:34:06.729Z,1.03
2018-09-26T13:36:37.484Z,1.00
2018-09-26T13:39:09.824Z,1.10
2018-09-26T13:41:40.701Z,1.33
2018-09-26T13:44:11.684Z,1.50
2018-09-26T13:46:42.475Z,1.30
2018-09-26T13:49:13.571Z,1.10
2018-09-26T13:51:44.353Z,1.30
2018-09-26T13:54:15.299Z,1.17
2018-09-26T13:56:46.067Z,1.30
2018-09-26T13:59:17.845Z,1.23
2018-09-26T14:01:48.608Z,1.20
2018-09-26T14:04:19.617Z,1.20
2018-09-26T14:07:01.183Z,1.27
2018-09-26T14:17:03.017Z,1.30
2018-09-26T14:19:54.191Z,1.20
2018-09-26T14:22:29.440Z,1.30
2018-09-26T14:25:08.323Z,1.50
2018-09-26T14:27:44.597Z,1.70
2018-09-26T14:30:16.354Z,1.63
2018-09-26T14:32:50.438Z,1.50
2018-09-26T14:35:24.589Z,1.30
2018-09-26T14:37:57.106Z,1.53
2018-09-26T14:40:31.344Z,1.13
2018-09-26T14:43:02.821Z,1.50
2018-09-26T14:45:34.856Z,1.43
2018-09-26T14:48:05.689Z,1.40
2018-09-26T14:50:37.041Z,1.40
2018-09-26T14:53:07.980Z,1.57
2018-09-26T14:55:38.811Z,1.63
2018-09-26T14:58:10.168Z,1.47
2018-09-26T15:00:41.178Z,2.00
2018-09-26T15:03:12.092Z,1.73
2018-09-26T15:05:42.860Z,1.50
2018-09-26T15:08:17.969Z,1.63
2018-09-26T15:10:48.829Z,1.70
2018-09-26T15:13:19.746Z,1.67
2018-09-26T15:15:54.511Z,1.60
2018-09-26T15:18:25.339Z,1.53
2018-09-26T15:20:56.217Z,1.57
2018-09-26T15:23:27.609Z,1.47
2018-09-26T15:25:58.458Z,1.53
2018-09-26T15:28:29.571Z,1.53
2018-09-26T15:31:00.604Z,1.30
2018-09-26T15:33:31.722Z,1.53
2018-09-26T15:36:02.933Z,1.30
2018-09-26T15:38:34.052Z,1.40
2018-09-26T15:41:06.304Z,1.33
2018-09-26T15:43:38.593Z,1.60
2018-09-26T15:46:10.650Z,1.20
2018-09-26T15:48:42.053Z,1.50
2018-09-26T15:51:13.565Z,1.57
2018-09-26T15:53:45.076Z,1.60
2018-09-26T15:56:16.694Z,1.40
2018-09-26T15:58:48.027Z,1.70
2018-09-26T16:01:18.930Z,1.47
2018-09-26T16:03:50.176Z,1.40
2018-09-26T16:06:22.246Z,1.20
2018-09-26T16:08:53.596Z,1.20
2018-09-26T16:11:24.642Z,1.30
2018-09-26T16:13:55.702Z,1.60
2018-09-26T16:16:26.938Z,1.53
2018-09-26T16:18:58.977Z,1.60
2018-09-26T16:21:30.345Z,1.40
2018-09-26T16:24:01.436Z,1.20
2018-09-26T16:26:32.629Z,1.33
2018-09-26T16:29:04.145Z,1.50
2018-09-26T16:31:35.694Z,1.50
2018-09-26T16:34:07.110Z,1.70
2018-09-26T16:36:38.557Z,1.30
2018-09-26T16:39:13.360Z,1.30
2018-09-26T16:41:45.650Z,1.37
2018-09-26T16:44:17.023Z,1.50
2018-09-26T16:46:48.437Z,1.30
2018-09-26T16:49:19.898Z,1.40
2018-09-26T16:51:51.485Z,1.50
2018-09-26T16:54:23.200Z,1.43
2018-09-26T16:56:54.782Z,1.43
2018-09-26T16:59:27.145Z,1.40
2018-09-26T17:01:58.657Z,1.30
2018-09-26T17:04:30.126Z,1.40
2018-09-26T17:07:02.516Z,1.50
2018-09-26T17:09:34.465Z,1.90
2018-09-26T17:12:06.023Z,2.30
2018-09-26T17:14:37.629Z,2.27
2018-09-26T17:17:11.532Z,2.40
2018-09-26T17:19:43.217Z,2.30
2018-09-26T17:22:15.020Z,2.20
2018-09-26T17:24:46.544Z,2.20
2018-09-26T17:27:17.910Z,2.73
2018-09-26T17:29:50.661Z,2.20
2018-09-26T17:32:22.114Z,2.17
2018-09-26T17:34:53.686Z,2.50
2018-09-26T17:37:26.282Z,2.47
2018-09-26T17:40:06.019Z,2.47
2018-09-26T17:42:37.587Z,2.43
2018-09-26T17:45:10.430Z,1.90
2018-09-26T17:47:41.405Z,2.00
2018-09-26T17:50:12.681Z,1.93
2018-09-26T17:52:43.766Z,2.20
2018-09-26T17:55:15.057Z,2.00
2018-09-26T17:57:46.666Z,2.30
2018-09-26T18:00:19.036Z,2.00
2018-09-26T18:02:52.098Z,2.10
2018-09-26T18:05:24.921Z,3.00
2018-09-26T18:07:57.639Z,2.37
2018-09-26T18:10:30.788Z,2.60
2018-09-26T18:13:03.268Z,2.70
2018-09-26T18:15:35.998Z,2.30
2018-09-26T18:18:10.869Z,1.90
2018-09-26T18:24:57.628Z,2.00
2018-09-26T18:27:46.904Z,1.70
2018-09-26T18:30:56.409Z,1.90
2018-09-26T18:33:48.129Z,1.47
2018-09-26T18:40:40.229Z,2.40
2018-09-26T18:43:28.518Z,2.80
2018-09-26T18:46:21.240Z,1.90
2018-09-26T18:48:55.869Z,2.43
2018-09-26T18:51:30.949Z,1.77
2018-09-26T18:54:04.593Z,1.80
2018-09-26T18:56:45.705Z,1.80
2018-09-26T18:59:32.344Z,1.87
2018-09-26T19:02:07.419Z,6.50
2018-09-26T19:04:41.262Z,5.47
2018-09-26T19:07:15.706Z,1.60
2018-09-26T19:09:48.434Z,1.70
2018-09-26T19:12:25.891Z,1.60
2018-09-26T19:15:02.827Z,1.30
2018-09-26T19:17:36.028Z,1.70
2018-09-26T19:20:10.393Z,1.70
2018-09-26T19:22:52.034Z,1.30
2018-09-26T19:25:30.034Z,1.60
2018-09-26T19:28:03.467Z,1.57
2018-09-26T19:30:39.134Z,1.40
2018-09-26T19:33:23.964Z,1.50
2018-09-26T19:35:56.414Z,1.40
2018-09-26T19:38:30.474Z,1.53
2018-09-26T19:41:18.204Z,1.47
2018-09-26T19:44:01.928Z,1.53
2018-09-26T19:46:36.535Z,1.50
2018-09-26T19:49:08.043Z,1.30
2018-09-26T19:51:44.289Z,1.53
2018-09-26T19:54:15.482Z,1.80
2018-09-26T19:56:46.968Z,1.73
2018-09-26T19:59:17.882Z,1.73
2018-09-26T20:01:51.895Z,1.60
2018-09-26T20:04:22.789Z,1.50
2018-09-26T20:06:53.656Z,1.90
2018-09-26T20:09:24.988Z,1.77
2018-09-26T20:11:56.940Z,1.87
2018-09-26T20:14:29.067Z,1.90
2018-09-26T20:16:59.798Z,2.07
2018-09-26T20:19:30.575Z,2.33
2018-09-26T20:22:03.144Z,2.20
2018-09-26T20:24:34.598Z,2.20
2018-09-26T20:27:05.599Z,1.90
2018-09-26T20:29:36.514Z,1.33
2018-09-26T20:32:07.130Z,1.90
2018-09-26T20:34:38.858Z,1.53
2018-09-26T20:37:09.705Z,1.70
2018-09-26T20:39:40.432Z,1.80
2018-09-26T20:42:11.202Z,1.60
2018-09-26T20:44:41.888Z,1.60
2018-09-26T20:47:12.977Z,1.80
2018-09-26T20:49:43.852Z,1.60
2018-09-26T20:52:30.864Z,1.77
2018-09-26T20:55:02.028Z,1.40
2018-09-26T20:57:32.831Z,1.80
2018-09-26T21:00:04.432Z,1.73
2018-09-26T21:02:35.164Z,1.70
2018-09-26T21:05:06.319Z,1.70
2018-09-26T21:07:37.172Z,1.50
2018-09-26T21:10:08.269Z,1.60
2018-09-26T21:12:39.191Z,1.60
2018-09-26T21:15:10.923Z,1.60
2018-09-26T21:17:41.729Z,1.73
2018-09-26T21:20:12.511Z,1.77
2018-09-26T21:22:43.453Z,1.73
2018-09-26T21:25:14.174Z,1.90
2018-09-26T21:27:44.932Z,1.80
2018-09-26T21:30:15.718Z,1.70
2018-09-26T21:32:46.684Z,1.90
2018-09-26T21:35:17.412Z,1.70
2018-09-26T21:37:48.148Z,2.03
2018-09-26T21:40:19.086Z,2.13
2018-09-26T21:42:49.871Z,1.60
2018-09-26T21:45:20.868Z,1.77
2018-09-26T21:47:51.636Z,1.23
2018-09-26T21:50:22.288Z,1.60
2018-09-26T21:52:53.036Z,1.80
2018-09-26T21:55:23.759Z,1.80
2018-09-26T21:57:54.532Z,1.67
2018-09-26T22:00:25.403Z,2.00
2018-09-26T22:02:56.249Z,2.07
2018-09-26T22:05:26.928Z,1.70
2018-09-26T22:07:57.672Z,2.00
2018-09-26T22:10:28.383Z,2.00
2018-09-26T22:12:59.052Z,2.37
2018-09-26T22:15:29.694Z,2.63
2018-09-26T22:18:00.391Z,2.90
2018-09-26T22:20:31.172Z,2.67
2018-09-26T22:23:01.952Z,2.63
2018-09-26T22:25:32.624Z,2.47
2018-09-26T22:28:03.372Z,2.23
2018-09-26T22:30:34.031Z,2.13
2018-09-26T22:33:04.904Z,2.30
2018-09-26T22:35:35.655Z,2.30
2018-09-26T22:38:06.625Z,2.10
2018-09-26T22:40:38.005Z,2.33
2018-09-26T22:43:08.672Z,2.20
2018-09-26T22:45:39.310Z,2.13
2018-09-26T22:48:10.040Z,1.93
2018-09-26T22:50:40.723Z,1.70
2018-09-26T22:53:11.424Z,1.90
2018-09-26T22:55:42.131Z,2.13
2018-09-26T22:58:12.864Z,2.13
2018-09-26T23:00:43.671Z,2.00
2018-09-26T23:03:14.453Z,2.60
2018-09-26T23:05:45.124Z,2.50
2018-09-26T23:08:15.854Z,2.90
2018-09-26T23:10:46.576Z,2.30
2018-09-26T23:13:17.371Z,2.50
2018-09-26T23:15:48.054Z,2.53
2018-09-26T23:18:19.103Z,2.90
2018-09-26T23:20:49.723Z,2.60
2018-09-26T23:23:20.391Z,2.57
2018-09-26T23:25:51.364Z,2.60
2018-09-26T23:28:22.131Z,2.50
2018-09-26T23:30:53.008Z,2.53
2018-09-26T23:33:24.565Z,2.70
2018-09-26T23:35:55.572Z,2.90
2018-09-26T23:38:26.373Z,2.80
2018-09-26T23:40:57.111Z,2.50
2018-09-26T23:43:27.745Z,2.90
2018-09-26T23:45:58.411Z,2.80
2018-09-26T23:48:29.071Z,2.77
2018-09-26T23:50:59.763Z,2.90
2018-09-26T23:53:30.376Z,2.50
2018-09-26T23:56:01.011Z,2.70
2018-09-26T23:58:31.672Z,2.57
